sensor_id;sensor_type;location;lat;lon;timestamp;pressure;altitude;pressure_sealevel;temperature;humidity
30730;BME280;17476;48.458;7.928;2024-01-25T00:01:17;101371.38;;;10.48;100.00
30730;BME280;17476;48.458;7.928;2024-01-25T00:03:43;101370.56;;;10.47;100.00
30730;BME280;17476;48.458;7.928;2024-01-25T00:06:09;101364.38;;;10.48;100.00
30730;BME280;17476;48.458;7.928;2024-01-25T00:08:35;101370.94;;;10.43;100.00
30730;BME280;17476;48.458;7.928;2024-01-25T00:11:04;101366.59;;;10.32;100.00
30730;BME280;17476;48.458;7.928;2024-01-25T00:13:30;101360.03;;;10.37;100.00
30730;BME280;17476;48.458;7.928;2024-01-25T00:15:56;101358.81;;;10.42;100.00
30730;BME280;17476;48.458;7.928;2024-01-25T00:18:22;101355.13;;;10.44;100.00
30730;BME280;17476;48.458;7.928;2024-01-25T00:20:47;101355.13;;;10.44;100.00
30730;BME280;17476;48.458;7.928;2024-01-25T00:23:13;101356.78;;;10.45;100.00
30730;BME280;17476;48.458;7.928;2024-01-25T00:25:39;101351.56;;;10.45;100.00
30730;BME280;17476;48.458;7.928;2024-01-25T00:28:05;101357.47;;;10.47;100.00
30730;BME280;17476;48.458;7.928;2024-01-25T00:30:30;101348.81;;;10.47;100.00
30730;BME280;17476;48.458;7.928;2024-01-25T00:32:57;101353.22;;;10.46;100.00
30730;BME280;17476;48.458;7.928;2024-01-25T00:35:24;101347.72;;;10.49;100.00
30730;BME280;17476;48.458;7.928;2024-01-25T00:37:51;101335.78;;;10.35;100.00
30730;BME280;17476;48.458;7.928;2024-01-25T00:40:17;101339.13;;;10.37;100.00
30730;BME280;17476;48.458;7.928;2024-01-25T00:42:46;101343.72;;;10.24;100.00
30730;BME280;17476;48.458;7.928;2024-01-25T00:45:23;101333.72;;;10.18;100.00
30730;BME280;17476;48.458;7.928;2024-01-25T00:47:50;101342.25;;;10.20;100.00
30730;BME280;17476;48.458;7.928;2024-01-25T00:50:17;101336.28;;;10.29;100.00
30730;BME280;17476;48.458;7.928;2024-01-25T00:52:47;101338.53;;;10.34;100.00
30730;BME280;17476;48.458;7.928;2024-01-25T00:55:14;101339.31;;;10.46;100.00
30730;BME280;17476;48.458;7.928;2024-01-25T00:57:40;101330.31;;;10.38;100.00
30730;BME280;17476;48.458;7.928;2024-01-25T01:00:07;101324.06;;;10.51;100.00
30730;BME280;17476;48.458;7.928;2024-01-25T01:02:39;101325.41;;;10.45;100.00
30730;BME280;17476;48.458;7.928;2024-01-25T01:05:06;101334.78;;;10.48;100.00
30730;BME280;17476;48.458;7.928;2024-01-25T01:07:32;101334.44;;;10.41;100.00
30730;BME280;17476;48.458;7.928;2024-01-25T01:10:00;101336.56;;;10.47;100.00
30730;BME280;17476;48.458;7.928;2024-01-25T01:12:25;101331.16;;;10.39;100.00
30730;BME280;17476;48.458;7.928;2024-01-25T01:14:51;101325.59;;;10.53;100.00
30730;BME280;17476;48.458;7.928;2024-01-25T01:17:17;101324.69;;;10.64;100.00
30730;BME280;17476;48.458;7.928;2024-01-25T01:19:44;101328.56;;;10.70;100.00
30730;BME280;17476;48.458;7.928;2024-01-25T01:22:10;101336.75;;;10.55;100.00
30730;BME280;17476;48.458;7.928;2024-01-25T01:24:36;101335.41;;;10.61;100.00
30730;BME280;17476;48.458;7.928;2024-01-25T01:27:01;101330.81;;;10.53;100.00
30730;BME280;17476;48.458;7.928;2024-01-25T01:29:27;101324.41;;;10.67;100.00
30730;BME280;17476;48.458;7.928;2024-01-25T01:31:53;101326.41;;;10.54;100.00
30730;BME280;17476;48.458;7.928;2024-01-25T01:34:19;101320.53;;;10.61;100.00
30730;BME280;17476;48.458;7.928;2024-01-25T01:36:45;101328.50;;;10.60;100.00
30730;BME280;17476;48.458;7.928;2024-01-25T01:39:10;101334.00;;;10.57;100.00
30730;BME280;17476;48.458;7.928;2024-01-25T01:41:36;101328.50;;;10.60;100.00
30730;BME280;17476;48.458;7.928;2024-01-25T01:44:02;101331.66;;;10.54;100.00
30730;BME280;17476;48.458;7.928;2024-01-25T01:46:36;101345.69;;;10.53;100.00
30730;BME280;17476;48.458;7.928;2024-01-25T01:49:07;101340.19;;;10.56;100.00
30730;BME280;17476;48.458;7.928;2024-01-25T01:51:36;101342.19;;;10.63;100.00
30730;BME280;17476;48.458;7.928;2024-01-25T01:54:03;101345.00;;;10.51;100.00
30730;BME280;17476;48.458;7.928;2024-01-25T01:56:31;101351.91;;;10.61;100.00
30730;BME280;17476;48.458;7.928;2024-01-25T01:59:02;101345.34;;;10.67;100.00
30730;BME280;17476;48.458;7.928;2024-01-25T02:01:30;101343.38;;;10.59;100.00
30730;BME280;17476;48.458;7.928;2024-01-25T02:03:56;101345.03;;;10.60;100.00
30730;BME280;17476;48.458;7.928;2024-01-25T02:06:25;101346.97;;;10.58;100.00
30730;BME280;17476;48.458;7.928;2024-01-25T02:08:52;101347.91;;;10.57;100.00
30730;BME280;17476;48.458;7.928;2024-01-25T02:11:21;101356.59;;;10.58;100.00
30730;BME280;17476;48.458;7.928;2024-01-25T02:13:47;101352.94;;;10.70;100.00
30730;BME280;17476;48.458;7.928;2024-01-25T02:16:13;101363.97;;;10.74;100.00
30730;BME280;17476;48.458;7.928;2024-01-25T02:18:41;101365.38;;;10.78;100.00
30730;BME280;17476;48.458;7.928;2024-01-25T02:21:07;101370.72;;;10.76;100.00
30730;BME280;17476;48.458;7.928;2024-01-25T02:23:33;101369.75;;;10.98;100.00
30730;BME280;17476;48.458;7.928;2024-01-25T02:25:59;101384.28;;;11.12;100.00
30730;BME280;17476;48.458;7.928;2024-01-25T02:28:25;101379.22;;;11.20;100.00
30730;BME280;17476;48.458;7.928;2024-01-25T02:30:51;101382.38;;;11.24;100.00
30730;BME280;17476;48.458;7.928;2024-01-25T02:33:17;101389.31;;;11.25;100.00
30730;BME280;17476;48.458;7.928;2024-01-25T02:35:42;101391.06;;;11.24;100.00
30730;BME280;17476;48.458;7.928;2024-01-25T02:38:08;101399.88;;;11.23;100.00
30730;BME280;17476;48.458;7.928;2024-01-25T02:40:34;101399.19;;;11.21;100.00
30730;BME280;17476;48.458;7.928;2024-01-25T02:43:00;101393.28;;;11.19;100.00
30730;BME280;17476;48.458;7.928;2024-01-25T02:45:26;101394.34;;;11.16;100.00
30730;BME280;17476;48.458;7.928;2024-01-25T02:47:51;101385.81;;;11.14;100.00
30730;BME280;17476;48.458;7.928;2024-01-25T02:50:17;101398.06;;;11.14;100.00
30730;BME280;17476;48.458;7.928;2024-01-25T02:52:43;101391.31;;;11.11;100.00
30730;BME280;17476;48.458;7.928;2024-01-25T02:55:09;101386.31;;;11.08;100.00
30730;BME280;17476;48.458;7.928;2024-01-25T02:57:34;101390.88;;;11.06;100.00
30730;BME280;17476;48.458;7.928;2024-01-25T03:00:00;101389.47;;;11.02;100.00
30730;BME280;17476;48.458;7.928;2024-01-25T03:02:26;101390.44;;;11.01;100.00
30730;BME280;17476;48.458;7.928;2024-01-25T03:04:52;101394.25;;;10.97;100.00
30730;BME280;17476;48.458;7.928;2024-01-25T03:07:18;101400.59;;;10.94;100.00
30730;BME280;17476;48.458;7.928;2024-01-25T03:09:44;101401.56;;;10.93;100.00
30730;BME280;17476;48.458;7.928;2024-01-25T03:12:09;101406.19;;;10.90;100.00
30730;BME280;17476;48.458;7.928;2024-01-25T03:14:36;101402.75;;;10.89;100.00
30730;BME280;17476;48.458;7.928;2024-01-25T03:17:01;101407.16;;;10.89;100.00
30730;BME280;17476;48.458;7.928;2024-01-25T03:19:28;101400.13;;;10.89;100.00
30730;BME280;17476;48.458;7.928;2024-01-25T03:21:54;101399.44;;;10.87;100.00
30730;BME280;17476;48.458;7.928;2024-01-25T03:24:21;101400.41;;;10.86;100.00
30730;BME280;17476;48.458;7.928;2024-01-25T03:26:47;101408.41;;;10.85;100.00
30730;BME280;17476;48.458;7.928;2024-01-25T03:29:14;101404.22;;;10.82;100.00
30730;BME280;17476;48.458;7.928;2024-01-25T03:31:39;101397.69;;;10.67;100.00
30730;BME280;17476;48.458;7.928;2024-01-25T03:34:05;101396.06;;;10.55;100.00
30730;BME280;17476;48.458;7.928;2024-01-25T03:36:31;101402.84;;;10.57;100.00
30730;BME280;17476;48.458;7.928;2024-01-25T03:38:57;101405.56;;;10.56;100.00
30730;BME280;17476;48.458;7.928;2024-01-25T03:41:23;101399.19;;;10.49;100.00
30730;BME280;17476;48.458;7.928;2024-01-25T03:43:50;101400.63;;;10.53;100.00
30730;BME280;17476;48.458;7.928;2024-01-25T03:46:16;101405.56;;;10.56;100.00
30730;BME280;17476;48.458;7.928;2024-01-25T03:48:42;101400.63;;;10.53;100.00
30730;BME280;17476;48.458;7.928;2024-01-25T03:51:08;101401.88;;;10.37;100.00
30730;BME280;17476;48.458;7.928;2024-01-25T03:53:34;101404.66;;;10.25;100.00
30730;BME280;17476;48.458;7.928;2024-01-25T03:56:00;101406.88;;;10.29;100.00
30730;BME280;17476;48.458;7.928;2024-01-25T03:58:25;101410.22;;;10.31;100.00
30730;BME280;17476;48.458;7.928;2024-01-25T04:00:51;101415.59;;;10.19;100.00
30730;BME280;17476;48.458;7.928;2024-01-25T04:03:17;101421.19;;;10.25;100.00
30730;BME280;17476;48.458;7.928;2024-01-25T04:05:43;101413.66;;;10.32;100.00
30730;BME280;17476;48.458;7.928;2024-01-25T04:08:09;101416.75;;;10.37;100.00
30730;BME280;17476;48.458;7.928;2024-01-25T04:10:34;101414.47;;;10.44;100.00
30730;BME280;17476;48.458;7.928;2024-01-25T04:13:00;101418.72;;;10.45;100.00
30730;BME280;17476;48.458;7.928;2024-01-25T04:15:27;101417.06;;;10.44;100.00
30730;BME280;17476;48.458;7.928;2024-01-25T04:17:53;101409.78;;;10.47;100.00
30730;BME280;17476;48.458;7.928;2024-01-25T04:20:19;101422.47;;;10.31;100.00
30730;BME280;17476;48.458;7.928;2024-01-25T04:22:45;101420.06;;;10.39;100.00
30730;BME280;17476;48.458;7.928;2024-01-25T04:25:11;101428.28;;;10.34;100.00
30730;BME280;17476;48.458;7.928;2024-01-25T04:27:37;101439.75;;;10.11;100.00
30730;BME280;17476;48.458;7.928;2024-01-25T04:30:05;101442.59;;;10.08;100.00
30730;BME280;17476;48.458;7.928;2024-01-25T04:32:31;101444.16;;;10.10;100.00
30730;BME280;17476;48.458;7.928;2024-01-25T04:34:57;101458.06;;;10.00;100.00
30730;BME280;17476;48.458;7.928;2024-01-25T04:37:26;101452.88;;;10.21;100.00
30730;BME280;17476;48.458;7.928;2024-01-25T04:39:52;101460.16;;;10.28;100.00
30730;BME280;17476;48.458;7.928;2024-01-25T04:42:17;101460.59;;;10.33;100.00
30730;BME280;17476;48.458;7.928;2024-01-25T04:44:43;101464.88;;;10.34;100.00
30730;BME280;17476;48.458;7.928;2024-01-25T04:47:09;101458.00;;;10.33;100.00
30730;BME280;17476;48.458;7.928;2024-01-25T04:49:36;101457.78;;;10.25;100.00
30730;BME280;17476;48.458;7.928;2024-01-25T04:52:02;101453.72;;;10.21;100.00
30730;BME280;17476;48.458;7.928;2024-01-25T04:54:28;101457.09;;;10.23;100.00
30730;BME280;17476;48.458;7.928;2024-01-25T04:56:53;101465.84;;;10.22;100.00
30730;BME280;17476;48.458;7.928;2024-01-25T04:59:20;101463.97;;;10.24;100.00
30730;BME280;17476;48.458;7.928;2024-01-25T05:01:46;101466.59;;;10.24;100.00
30730;BME280;17476;48.458;7.928;2024-01-25T05:04:12;101463.16;;;10.24;100.00
30730;BME280;17476;48.458;7.928;2024-01-25T05:06:38;101455.31;;;10.24;100.00
30730;BME280;17476;48.458;7.928;2024-01-25T05:09:04;101453.84;;;10.20;100.00
30730;BME280;17476;48.458;7.928;2024-01-25T05:11:29;101460.59;;;10.22;100.00
30730;BME280;17476;48.458;7.928;2024-01-25T05:13:55;101465.25;;;10.19;100.00
30730;BME280;17476;48.458;7.928;2024-01-25T05:16:21;101455.44;;;10.11;100.00
30730;BME280;17476;48.458;7.928;2024-01-25T05:18:47;101461.34;;;10.13;100.00
30730;BME280;17476;48.458;7.928;2024-01-25T05:21:12;101454.34;;;10.13;100.00
30730;BME280;17476;48.458;7.928;2024-01-25T05:23:38;101460.53;;;10.12;100.00
30730;BME280;17476;48.458;7.928;2024-01-25T05:26:05;101468.38;;;10.12;100.00
30730;BME280;17476;48.458;7.928;2024-01-25T05:28:31;101464.22;;;10.10;100.00
30730;BME280;17476;48.458;7.928;2024-01-25T05:30:57;101459.09;;;10.08;100.00
30730;BME280;17476;48.458;7.928;2024-01-25T05:33:23;101455.22;;;10.03;100.00
30730;BME280;17476;48.458;7.928;2024-01-25T05:35:49;101448.78;;;10.07;100.00
30730;BME280;17476;48.458;7.928;2024-01-25T05:38:14;101443.53;;;10.07;100.00
30730;BME280;17476;48.458;7.928;2024-01-25T05:40:40;101455.56;;;9.98;100.00
30730;BME280;17476;48.458;7.928;2024-01-25T05:43:06;101464.25;;;9.99;100.00
30730;BME280;17476;48.458;7.928;2024-01-25T05:45:32;101469.13;;;10.03;100.00
30730;BME280;17476;48.458;7.928;2024-01-25T05:47:58;101455.91;;;10.05;100.00
30730;BME280;17476;48.458;7.928;2024-01-25T05:50:24;101452.47;;;10.04;100.00
30730;BME280;17476;48.458;7.928;2024-01-25T05:52:50;101452.22;;;10.07;100.00
30730;BME280;17476;48.458;7.928;2024-01-25T05:55:15;101447.72;;;9.98;100.00
30730;BME280;17476;48.458;7.928;2024-01-25T05:57:43;101445.59;;;10.03;100.00
30730;BME280;17476;48.458;7.928;2024-01-25T06:00:11;101444.38;;;10.07;100.00
30730;BME280;17476;48.458;7.928;2024-01-25T06:02:38;101442.16;;;10.03;100.00
30730;BME280;17476;48.458;7.928;2024-01-25T06:05:04;101445.47;;;10.05;100.00
30730;BME280;17476;48.458;7.928;2024-01-25T06:07:30;101440.47;;;10.02;100.00
30730;BME280;17476;48.458;7.928;2024-01-25T06:09:56;101447.38;;;10.03;100.00
30730;BME280;17476;48.458;7.928;2024-01-25T06:12:21;101449.72;;;10.06;100.00
30730;BME280;17476;48.458;7.928;2024-01-25T06:14:47;101455.78;;;10.06;100.00
30730;BME280;17476;48.458;7.928;2024-01-25T06:17:13;101458.03;;;10.11;100.00
30730;BME280;17476;48.458;7.928;2024-01-25T06:19:39;101456.63;;;10.07;100.00
30730;BME280;17476;48.458;7.928;2024-01-25T06:22:04;101463.41;;;10.09;100.00
30730;BME280;17476;48.458;7.928;2024-01-25T06:24:30;101465.75;;;10.12;100.00
30730;BME280;17476;48.458;7.928;2024-01-25T06:26:56;101471.81;;;10.13;100.00
30730;BME280;17476;48.458;7.928;2024-01-25T06:29:22;101468.25;;;10.14;100.00
30730;BME280;17476;48.458;7.928;2024-01-25T06:31:48;101465.88;;;10.11;100.00
30730;BME280;17476;48.458;7.928;2024-01-25T06:34:14;101485.38;;;10.07;100.00
30730;BME280;17476;48.458;7.928;2024-01-25T06:36:39;101486.06;;;10.09;100.00
30730;BME280;17476;48.458;7.928;2024-01-25T06:39:05;101481.69;;;10.09;100.00
30730;BME280;17476;48.458;7.928;2024-01-25T06:41:32;101482.75;;;10.07;100.00
30730;BME280;17476;48.458;7.928;2024-01-25T06:43:58;101482.06;;;10.05;100.00
30730;BME280;17476;48.458;7.928;2024-01-25T06:46:24;101471.81;;;10.02;100.00
30730;BME280;17476;48.458;7.928;2024-01-25T06:48:50;101477.19;;;10.00;100.00
30730;BME280;17476;48.458;7.928;2024-01-25T06:51:16;101472.91;;;9.99;100.00
30730;BME280;17476;48.458;7.928;2024-01-25T06:53:42;101472.91;;;9.99;100.00
30730;BME280;17476;48.458;7.928;2024-01-25T06:56:08;101478.28;;;9.98;100.00
30730;BME280;17476;48.458;7.928;2024-01-25T06:58:33;101473.53;;;9.92;100.00
30730;BME280;17476;48.458;7.928;2024-01-25T07:01:00;101470.66;;;9.95;100.00
30730;BME280;17476;48.458;7.928;2024-01-25T07:03:25;101463.53;;;9.97;100.00
30730;BME280;17476;48.458;7.928;2024-01-25T07:05:51;101473.63;;;10.01;100.00
30730;BME280;17476;48.458;7.928;2024-01-25T07:08:17;101474.44;;;10.02;100.00
30730;BME280;17476;48.458;7.928;2024-01-25T07:10:44;101474.22;;;10.05;100.00
30730;BME280;17476;48.458;7.928;2024-01-25T07:13:10;101480.06;;;9.97;100.00
30730;BME280;17476;48.458;7.928;2024-01-25T07:15:36;101484.78;;;10.03;100.00
30730;BME280;17476;48.458;7.928;2024-01-25T07:18:02;101483.00;;;10.04;100.00
30730;BME280;17476;48.458;7.928;2024-01-25T07:20:29;101481.22;;;10.04;100.00
30730;BME280;17476;48.458;7.928;2024-01-25T07:22:54;101482.88;;;10.05;100.00
30730;BME280;17476;48.458;7.928;2024-01-25T07:25:20;101471.59;;;10.05;100.00
30730;BME280;17476;48.458;7.928;2024-01-25T07:27:47;101470.91;;;10.03;100.00
30730;BME280;17476;48.458;7.928;2024-01-25T07:30:13;101481.22;;;10.04;100.00
30730;BME280;17476;48.458;7.928;2024-01-25T07:32:39;101469.13;;;10.03;100.00
30730;BME280;17476;48.458;7.928;2024-01-25T07:35:08;101470.03;;;10.02;100.00
30730;BME280;17476;48.458;7.928;2024-01-25T07:37:38;101470.91;;;10.03;100.00
30730;BME280;17476;48.458;7.928;2024-01-25T07:40:06;101468.28;;;10.03;100.00
30730;BME280;17476;48.458;7.928;2024-01-25T07:42:32;101474.22;;;10.05;100.00
30730;BME280;17476;48.458;7.928;2024-01-25T07:44:58;101479.19;;;10.08;100.00
30730;BME280;17476;48.458;7.928;2024-01-25T07:47:24;101474.44;;;10.13;100.00
30730;BME280;17476;48.458;7.928;2024-01-25T07:49:49;101475.13;;;10.15;100.00
30730;BME280;17476;48.458;7.928;2024-01-25T07:52:15;101463.84;;;10.15;100.00
30730;BME280;17476;48.458;7.928;2024-01-25T07:54:41;101473.47;;;10.14;100.00
30730;BME280;17476;48.458;7.928;2024-01-25T07:57:07;101464.25;;;9.99;100.00
30730;BME280;17476;48.458;7.928;2024-01-25T07:59:33;101465.34;;;9.96;100.00
30730;BME280;17476;48.458;7.928;2024-01-25T08:01:58;101463.06;;;10.03;100.00
30730;BME280;17476;48.458;7.928;2024-01-25T08:04:24;101459.28;;;9.96;100.00
30730;BME280;17476;48.458;7.928;2024-01-25T08:06:51;101464.81;;;10.02;100.00
30730;BME280;17476;48.458;7.928;2024-01-25T08:09:17;101471.59;;;10.16;100.00
30730;BME280;17476;48.458;7.928;2024-01-25T08:11:44;101471.06;;;10.22;100.00
30730;BME280;17476;48.458;7.928;2024-01-25T08:14:10;101473.34;;;10.27;100.00
30730;BME280;17476;48.458;7.928;2024-01-25T08:16:37;101473.94;;;10.30;100.00
30730;BME280;17476;48.458;7.928;2024-01-25T08:19:03;101466.94;;;10.31;100.00
30730;BME280;17476;48.458;7.928;2024-01-25T08:21:29;101477.13;;;10.34;100.00
30730;BME280;17476;48.458;7.928;2024-01-25T08:23:54;101471.66;;;10.37;100.00
30730;BME280;17476;48.458;7.928;2024-01-25T08:26:20;101477.59;;;10.39;100.00
30730;BME280;17476;48.458;7.928;2024-01-25T08:28:46;101477.00;;;10.35;100.00
30730;BME280;17476;48.458;7.928;2024-01-25T08:31:12;101477.09;;;10.45;100.00
30730;BME280;17476;48.458;7.928;2024-01-25T08:33:39;101486.56;;;10.57;100.00
30730;BME280;17476;48.458;7.928;2024-01-25T08:36:10;101485.09;;;10.64;100.00
30730;BME280;17476;48.458;7.928;2024-01-25T08:38:36;101485.09;;;10.64;100.00
30730;BME280;17476;48.458;7.928;2024-01-25T08:41:02;101491.88;;;10.67;100.00
30730;BME280;17476;48.458;7.928;2024-01-25T08:43:28;101488.16;;;10.70;100.00
30730;BME280;17476;48.458;7.928;2024-01-25T08:45:54;101480.09;;;10.61;100.00
30730;BME280;17476;48.458;7.928;2024-01-25T08:48:19;101478.09;;;10.65;100.00
30730;BME280;17476;48.458;7.928;2024-01-25T08:50:45;101475.19;;;10.68;100.00
30730;BME280;17476;48.458;7.928;2024-01-25T08:53:11;101476.53;;;10.62;100.00
30730;BME280;17476;48.458;7.928;2024-01-25T08:55:37;101472.13;;;10.63;100.00
30730;BME280;17476;48.458;7.928;2024-01-25T08:58:02;101469.09;;;10.58;100.00
30730;BME280;17476;48.458;7.928;2024-01-25T09:00:28;101475.66;;;10.73;100.00
30730;BME280;17476;48.458;7.928;2024-01-25T09:02:54;101471.75;;;10.88;100.00
30730;BME280;17476;48.458;7.928;2024-01-25T09:05:20;101466.84;;;10.95;100.00
30730;BME280;17476;48.458;7.928;2024-01-25T09:07:45;101471.84;;;10.98;100.00
30730;BME280;17476;48.458;7.928;2024-01-25T09:10:13;101470.47;;;10.83;100.00
30730;BME280;17476;48.458;7.928;2024-01-25T09:12:38;101473.38;;;11.01;100.00
30730;BME280;17476;48.458;7.928;2024-01-25T09:15:07;101471.44;;;10.82;100.00
30730;BME280;17476;48.458;7.928;2024-01-25T09:17:34;101470.13;;;10.87;100.00
30730;BME280;17476;48.458;7.928;2024-01-25T09:19:59;101475.28;;;10.99;100.00
30730;BME280;17476;48.458;7.928;2024-01-25T09:22:25;101476.94;;;11.00;100.00
30730;BME280;17476;48.458;7.928;2024-01-25T09:24:52;101479.38;;;11.12;100.00
30730;BME280;17476;48.458;7.928;2024-01-25T09:27:18;101474.44;;;11.19;100.00
30730;BME280;17476;48.458;7.928;2024-01-25T09:29:44;101481.50;;;11.28;100.00
30730;BME280;17476;48.458;7.928;2024-01-25T09:32:10;101475.59;;;11.26;100.00
30730;BME280;17476;48.458;7.928;2024-01-25T09:34:39;101476.56;;;11.25;100.00
30730;BME280;17476;48.458;7.928;2024-01-25T09:37:05;101491.31;;;11.05;100.00
30730;BME280;17476;48.458;7.928;2024-01-25T09:39:31;101493.47;;;11.21;100.00
30730;BME280;17476;48.458;7.928;2024-01-25T09:41:57;101490.41;;;11.16;100.00
30730;BME280;17476;48.458;7.928;2024-01-25T09:44:24;101494.66;;;11.17;100.00
30730;BME280;17476;48.458;7.928;2024-01-25T09:46:51;101488.38;;;11.19;100.00
30730;BME280;17476;48.458;7.928;2024-01-25T09:49:17;101494.13;;;11.13;100.00
30730;BME280;17476;48.458;7.928;2024-01-25T09:51:44;101499.28;;;10.83;100.00
30730;BME280;17476;48.458;7.928;2024-01-25T09:54:10;101496.47;;;10.96;100.00
30730;BME280;17476;48.458;7.928;2024-01-25T09:56:36;101502.94;;;10.91;100.00
30730;BME280;17476;48.458;7.928;2024-01-25T09:59:03;101505.38;;;11.04;100.00
30730;BME280;17476;48.458;7.928;2024-01-25T10:01:30;101507.66;;;11.18;100.00
30730;BME280;17476;48.458;7.928;2024-01-25T10:03:56;101506.84;;;11.18;100.00
30730;BME280;17476;48.458;7.928;2024-01-25T10:06:22;101513.66;;;10.88;100.00
30730;BME280;17476;48.458;7.928;2024-01-25T10:08:48;101513.13;;;10.94;100.00
30730;BME280;17476;48.458;7.928;2024-01-25T10:11:15;101506.13;;;10.95;100.00
30730;BME280;17476;48.458;7.928;2024-01-25T10:13:45;101509.06;;;11.02;100.00
30730;BME280;17476;48.458;7.928;2024-01-25T10:16:15;101507.22;;;10.92;100.00
30730;BME280;17476;48.458;7.928;2024-01-25T10:18:44;101515.13;;;11.02;100.00
30730;BME280;17476;48.458;7.928;2024-01-25T10:21:10;101521.59;;;10.98;100.00
30730;BME280;17476;48.458;7.928;2024-01-25T10:23:40;101514.88;;;11.05;100.00
30730;BME280;17476;48.458;7.928;2024-01-25T10:26:08;101506.56;;;11.21;100.00
30730;BME280;17476;48.458;7.928;2024-01-25T10:28:33;101505.88;;;11.19;100.00
30730;BME280;17476;48.458;7.928;2024-01-25T10:31:03;101505.28;;;11.15;100.00
30730;BME280;17476;48.458;7.928;2024-01-25T10:33:33;101502.84;;;11.03;100.00
30730;BME280;17476;48.458;7.928;2024-01-25T10:36:01;101501.47;;;11.19;100.00
30730;BME280;17476;48.458;7.928;2024-01-25T10:38:33;101501.16;;;11.13;100.00
30730;BME280;17476;48.458;7.928;2024-01-25T10:41:02;101501.69;;;11.37;100.00
30730;BME280;17476;48.458;7.928;2024-01-25T10:43:31;101502.28;;;11.20;100.00
30730;BME280;17476;48.458;7.928;2024-01-25T10:45:57;101505.22;;;11.06;100.00
30730;BME280;17476;48.458;7.928;2024-01-25T10:48:27;101497.09;;;11.30;100.00
30730;BME280;17476;48.458;7.928;2024-01-25T10:50:57;101486.75;;;11.28;100.00
30730;BME280;17476;48.458;7.928;2024-01-25T10:53:26;101487.09;;;11.44;100.00
30730;BME280;17476;48.458;7.928;2024-01-25T10:55:53;101492.38;;;11.24;100.00
30730;BME280;17476;48.458;7.928;2024-01-25T10:58:19;101495.81;;;11.03;100.00
30730;BME280;17476;48.458;7.928;2024-01-25T11:01:11;101480.03;;;11.05;100.00
30730;BME280;17476;48.458;7.928;2024-01-25T11:03:39;101483.00;;;11.21;100.00
30730;BME280;17476;48.458;7.928;2024-01-25T11:06:10;101481.81;;;11.04;100.00
30730;BME280;17476;48.458;7.928;2024-01-25T11:08:37;101482.81;;;10.92;100.00
30730;BME280;17476;48.458;7.928;2024-01-25T11:11:10;101476.75;;;11.12;100.00
30730;BME280;17476;48.458;7.928;2024-01-25T11:13:39;101481.53;;;11.38;100.00
30730;BME280;17476;48.458;7.928;2024-01-25T11:16:17;101481.09;;;11.54;100.00
30730;BME280;17476;48.458;7.928;2024-01-25T11:18:51;101466.19;;;11.54;100.00
30730;BME280;17476;48.458;7.928;2024-01-25T11:24:01;101455.31;;;11.28;100.00
30730;BME280;17476;48.458;7.928;2024-01-25T11:26:27;101450.63;;;11.53;100.00
30730;BME280;17476;48.458;7.928;2024-01-25T11:28:53;101449.13;;;11.60;100.00
30730;BME280;17476;48.458;7.928;2024-01-25T11:31:19;101441.09;;;11.52;100.00
30730;BME280;17476;48.458;7.928;2024-01-25T11:33:45;101436.72;;;11.71;100.00
30730;BME280;17476;48.458;7.928;2024-01-25T11:36:11;101439.41;;;11.81;100.00
30730;BME280;17476;48.458;7.928;2024-01-25T11:38:37;101437.44;;;11.73;100.00
30730;BME280;17476;48.458;7.928;2024-01-25T11:41:02;101441.22;;;11.90;100.00
30730;BME280;17476;48.458;7.928;2024-01-25T11:43:28;101439.56;;;11.89;100.00
30730;BME280;17476;48.458;7.928;2024-01-25T11:45:54;101426.66;;;11.76;100.00
30730;BME280;17476;48.458;7.928;2024-01-25T11:48:20;101418.22;;;11.63;100.00
30730;BME280;17476;48.458;7.928;2024-01-25T11:50:46;101421.19;;;11.80;100.00
30730;BME280;17476;48.458;7.928;2024-01-25T11:53:12;101417.75;;;11.89;100.00
30730;BME280;17476;48.458;7.928;2024-01-25T11:55:37;101411.00;;;11.86;100.00
30730;BME280;17476;48.458;7.928;2024-01-25T11:58:03;101408.69;;;12.02;100.00
30730;BME280;17476;48.458;7.928;2024-01-25T12:00:29;101406.44;;;11.98;100.00
30730;BME280;17476;48.458;7.928;2024-01-25T12:02:55;101404.66;;;11.89;100.00
30730;BME280;17476;48.458;7.928;2024-01-25T12:05:21;101402.25;;;11.76;100.00
30730;BME280;17476;48.458;7.928;2024-01-25T12:07:47;101397.69;;;11.78;100.00
30730;BME280;17476;48.458;7.928;2024-01-25T12:10:16;101400.09;;;11.81;100.00
30730;BME280;17476;48.458;7.928;2024-01-25T12:12:43;101398.16;;;11.83;100.00
30730;BME280;17476;48.458;7.928;2024-01-25T12:15:09;101389.06;;;11.87;100.00
30730;BME280;17476;48.458;7.928;2024-01-25T12:17:35;101391.03;;;11.45;100.00
30730;BME280;17476;48.458;7.928;2024-01-25T12:20:06;101381.47;;;11.44;100.00
30730;BME280;17476;48.458;7.928;2024-01-25T12:22:37;101377.81;;;11.56;100.00
30730;BME280;17476;48.458;7.928;2024-01-25T12:25:07;101374.09;;;11.59;100.00
30730;BME280;17476;48.458;7.928;2024-01-25T12:27:34;101371.88;;;11.64;100.00
30730;BME280;17476;48.458;7.928;2024-01-25T12:29:59;101368.03;;;11.68;100.00
30730;BME280;17476;48.458;7.928;2024-01-25T12:32:25;101368.91;;;11.38;100.00
30730;BME280;17476;48.458;7.928;2024-01-25T12:34:59;101367.16;;;11.38;100.00
30730;BME280;17476;48.458;7.928;2024-01-25T12:37:26;101362.91;;;11.07;100.00
30730;BME280;17476;48.458;7.928;2024-01-25T12:39:53;101357.66;;;11.07;100.00